• Join FlightAware (Why Join?)
  • Login
  • US Flag 
04:26AM EDT


 

Airport Tracker/Info


-or-


 

Live Flight TrackerFlight Track Log ✈ WIG7413 ✈ 20-Aug-2014 ✈ KALB - KEWR

Flight Track Log - Related Links

Times and Time Zones

All times are in EDT time to prevent confusion due to time zone crossing. See the WIG7413 flight status page for this flight to view local times or setup timezone preferences in your user account.

Time Position Orientation Groundspeed Altitude Reporting Facility
EDT Latitude Longitude Course Direction KTS MPH feet Rate Location/Type
10:06PM 42.7447 -73.8039 190° South 75 86 800  Level Boston Center
10:07PM 42.7200 -73.8100 190° South 84 97 2,100 1,200 Climbing Boston Center
10:08PM 42.7042 -73.8225 210° Southwest 83 96 3,100 1,200 Climbing Boston Center
10:08PM 42.6953 -73.8278 204° Southwest 94 108 3,300 900 Climbing Boston Center
10:09PM 42.6678 -73.8478 208° Southwest 112 129 4,300 1,020 Climbing Boston Center
10:10PM 42.6497 -73.8653 215° Southwest 114 131 5,100 960 Climbing Boston Center
10:10PM 42.6394 -73.8731 209° Southwest 127 146 5,300 780 Climbing Boston Center
10:11PM 42.6189 -73.8894 210° Southwest 123 142 5,900 900 Climbing Boston Center
10:11PM 42.6072 -73.8969 205° Southwest 129 148 6,200 960 Climbing Boston Center
10:12PM 42.5847 -73.9147 210° Southwest 126 145 6,900 840 Climbing Boston Center
10:12PM 42.5750 -73.9208 205° Southwest 133 153 7,100 780 Climbing Boston Center
10:13PM 42.5525 -73.9392 211° Southwest 130 150 7,700 660 Climbing Boston Center
10:13PM 42.5419 -73.9475 210° Southwest 136 157 7,800 360 Climbing Boston Center
10:14PM 42.5167 -73.9672 210° Southwest 142 163 8,100 300 Climbing Boston Center
10:14PM 42.5067 -73.9761 213° Southwest 154 177 8,100  Level Boston Center
10:15PM 42.4778 -73.9975 209° Southwest 155 178 8,100  Level Boston Center
10:15PM 42.4642 -74.0083 210° Southwest 167 192 8,100  Level Boston Center
10:16PM 42.4344 -74.0289 207° Southwest 162 186 8,100  Level Boston Center
10:17PM 42.3953 -74.0586 209° Southwest 162 186 8,100  Level Boston Center
10:18PM 42.3564 -74.0881 209° Southwest 162 186 8,100 -60 Level Boston Center
10:19PM 42.3161 -74.1192 210° Southwest 162 186 8,000 -60 Descending Boston Center
10:20PM 42.2767 -74.1489 209° Southwest 162 186 8,000  Level Boston Center
10:21PM 42.2372 -74.1783 209° Southwest 162 186 8,000  Level Boston Center
10:22PM 42.1961 -74.1992 201° Southwest 161 185 8,000  Level Boston Center
10:23PM 42.1522 -74.2172 197° South 162 186 8,000  Level Boston Center
10:24PM 42.1078 -74.2397 201° Southwest 161 185 8,000  Level Boston Center
10:25PM 42.0675 -74.2594 200° South 157 181 8,000  Level Boston Center
10:26PM 42.0261 -74.2797 200° South 157 181 8,000  Level Boston Center
10:27PM 41.9850 -74.3000 200° South 157 181 8,000  Level Boston Center
10:28PM 41.9439 -74.3197 200° South 157 181 8,000  Level Boston Center
10:29PM 41.9000 -74.3414 200° South 157 181 8,000  Level Boston Center
10:30PM 41.8592 -74.3600 199° South 157 181 8,000  Level Boston Center
10:31PM 41.8175 -74.3803 200° South 158 182 8,000  Level Boston Center
10:32PM 41.7772 -74.4008 201° Southwest 159 183 8,000  Level Boston Center
10:33PM 41.7358 -74.4206 200° South 159 183 8,000  Level Boston Center
10:34PM 41.6914 -74.4422 200° South 159 183 8,000  Level Boston Center
10:35PM 41.6514 -74.4617 200° South 157 181 8,000 -360 Level Boston Center
10:36PM 41.6081 -74.4833 200° South 163 188 7,300 -660 Descending Boston Center
10:37PM 41.5631 -74.5064 201° Southwest 171 197 6,700 -600 Descending Boston Center
10:38PM 41.5144 -74.5300 200° South 171 197 6,100 -360 Descending Boston Center
10:39PM 41.4708 -74.5503 199° South 170 196 6,000 -60 Descending Boston Center
10:40PM 41.4297 -74.5672 197° South 160 184 6,000  Level Boston Center
10:41PM 41.3892 -74.5864 200° South 159 183 6,000  Level Boston Center
10:42PM 41.3500 -74.6000 195° South 156 180 6,000  Level New York TRACON
10:43PM 41.3167 -74.6333 217° Southwest 157 181 6,000 -240 Level New York TRACON
10:44PM 41.2667 -74.6333 180° South 164 189 5,600 -600 Descending New York TRACON
10:45PM 41.2167 -74.6500 194° South 170 196 4,900 -720 Descending New York TRACON
10:46PM 41.1667 -74.6500 180° South 166 191 4,200 -420 Descending New York TRACON
10:47PM 41.1167 -74.6500 180° South 157 181 4,100 -60 Descending New York TRACON
10:48PM 41.1000 -74.6000 114° Southeast 166 191 4,100  Level New York TRACON
10:49PM 41.0833 -74.5667 124° Southeast 164 189 4,100  Level New York TRACON
10:50PM 41.0500 -74.5167 131° Southeast 166 191 4,100  Level New York TRACON
10:51PM 41.0333 -74.4667 114° Southeast 165 190 4,100 -240 Level New York TRACON
10:52PM 41.0000 -74.4000 124° Southeast 171 197 3,600 -480 Descending New York TRACON
10:53PM 40.9833 -74.3500 114° Southeast 174 200 3,200 -360 Descending New York TRACON
10:54PM 40.9667 -74.3000 114° Southeast 171 197 3,000 -60 Descending New York TRACON
10:55PM 40.9500 -74.2333 108° East 165 190 3,100  Climbing New York TRACON
10:56PM 40.9500 -74.1833 90° East 169 194 3,100  Level New York TRACON
10:57PM 40.9667 -74.1167 72° East 175 201 3,100  Level New York TRACON
10:58PM 40.9500 -74.0667 114° Southeast 167 192 3,100  Level New York TRACON
10:59PM 40.9167 -74.0500 159° South 157 181 3,100  Level New York TRACON
11:00PM 40.8667 -74.0500 180° South 160 184 3,100 -60 Level New York TRACON
11:01PM 40.8333 -74.0833 217° Southwest 161 185 3,000 -600 Descending New York TRACON
11:02PM 40.7833 -74.1000 194° South 173 199 2,000 -960 Descending New York TRACON
11:03PM 40.7500 -74.1333 217° Southwest 166 191 1,100 -900 Descending New York TRACON
11:04PM 40.7000 -74.1500 194° South 145 167 300 -900 Descending New York TRACON